EDT,Max TemperatureF,Mean TemperatureF,Min TemperatureF,Max Dew PointF,MeanDew PointF,Min DewpointF,Max Humidity, Mean Humidity, Min Humidity, Max Sea Level PressureIn, Mean Sea Level PressureIn, Min Sea Level PressureIn, Max VisibilityMiles, Mean VisibilityMiles, Min VisibilityMiles, Max Wind SpeedMPH, Mean Wind SpeedMPH, Max Gust SpeedMPH,PrecipitationIn, CloudCover, Events, WindDirDegrees
2014-3-1,37,27,17,25,12,2,64,50,34,30.43,30.31,30.16,10,10,10,12,3,,0.00,3,,207
2014-3-2,41,37,33,23,19,16,61,50,44,30.13,30.05,29.99,10,10,7,10,4,,0.00,8,,310
2014-3-3,32,26,18,18,5,-3,75,47,34,30.34,30.17,30.02,10,8,2,16,10,26,0.01,4,Snow,345
2014-3-4,30,21,12,7,1,-4,51,40,32,30.44,30.34,30.26,10,10,10,8,5,,0.00,2,,288
2014-3-5,37,32,26,13,9,5,55,40,28,30.45,30.29,30.22,10,10,10,15,3,22,0.00,7,,7
2014-3-6,30,23,16,11,3,-1,52,41,29,30.65,30.56,30.49,10,10,10,14,8,22,0.00,0,,47
2014-3-7,39,32,26,27,19,11,67,58,49,30.47,30.22,29.93,10,10,10,9,5,,0.00,8,,25
2014-3-8,54,44,33,30,27,26,85,53,34,29.91,29.85,29.77,10,10,8,14,6,22,0.00,4,,319
2014-3-9,43,40,37,26,17,11,57,41,30,30.02,29.96,29.89,10,10,8,14,9,24,0.00,2,,307
2014-3-10,52,43,35,32,25,16,76,51,39,29.92,29.78,29.61,10,9,1,13,7,,0.00,7,Snow,224
2014-3-11,66,52,37,37,33,29,70,49,27,29.69,29.62,29.56,10,10,10,13,5,22,0.00,1,,253
2014-3-12,60,48,36,48,40,27,88,70,46,29.66,29.24,29.02,10,7,2,22,5,33,0.20,6,Rain,5
2014-3-13,33,26,19,21,4,-2,61,42,30,30.10,29.66,29.22,10,10,10,28,21,41,0.01,4,,318
2014-3-14,48,34,21,25,11,0,53,39,26,30.22,30.10,29.91,10,10,10,17,7,25,0.00,2,,198
2014-3-15,59,49,41,30,26,22,53,39,28,30.00,29.83,29.75,10,10,10,23,9,34,0.00,4,,247
2014-3-16,41,37,32,20,10,4,46,35,29,30.21,30.15,30.02,10,10,10,22,11,28,0.00,2,,326
2014-3-17,34,28,23,6,2,-4,42,32,25,30.15,30.10,30.05,10,10,10,14,9,21,0.00,6,,13
2014-3-18,43,34,26,23,7,-1,61,34,18,30.30,30.24,30.14,10,10,10,13,6,18,0.00,0,,55
2014-3-19,44,38,32,39,32,22,89,77,57,30.32,30.09,29.85,10,7,2,23,6,29,1.03,7,Rain,40
2014-3-20,55,48,41,39,33,22,89,63,34,29.90,29.78,29.73,10,8,3,20,8,33,0.05,5,Rain,270
2014-3-21,52,46,37,24,21,18,49,40,28,30.06,29.97,29.90,10,10,10,17,11,28,0.00,2,,303
2014-3-22,64,50,37,36,28,20,59,44,27,30.04,29.88,29.75,10,10,10,23,8,34,0.00,1,,279
2014-3-23,43,36,28,24,17,5,53,42,29,30.13,30.04,29.99,10,10,10,16,7,24,0.00,2,,325
2014-3-24,36,28,21,8,5,4,51,38,30,30.25,30.18,30.11,10,10,10,17,10,28,0.00,0,,322
2014-3-25,39,32,24,18,11,4,60,41,28,30.17,30.04,29.86,10,10,10,14,4,20,0.00,4,,98
2014-3-26,37,32,26,17,9,0,50,38,27,30.23,29.92,29.75,10,10,10,28,14,41,0.00,3,,326
2014-3-27,46,33,21,20,10,5,53,38,21,30.43,30.33,30.26,10,10,10,17,8,22,0.00,0,,234
2014-3-28,62,48,36,49,39,19,83,68,47,30.25,30.06,29.97,10,10,4,14,6,,0.04,6,Rain,206
2014-3-29,54,48,43,48,43,38,92,82,66,30.19,30.05,29.70,10,6,2,17,5,31,1.80,6,Fog-Rain,52
2014-3-30,48,46,42,47,42,34,100,84,62,29.68,29.57,29.49,10,5,1,20,12,31,0.92,8,Rain,10
2014-3-31,55,46,37,36,33,26,87,65,40,30.08,29.87,29.70,10,10,5,18,11,25,0.13,5,Rain,357